createdAt,value
2018-07-16T00:00:58.768Z,0.0
2018-07-16T00:01:59.340Z,0.0
2018-07-16T00:02:58.779Z,0.0
2018-07-16T00:03:58.712Z,0.0
2018-07-16T00:04:58.809Z,0.0
2018-07-16T00:05:58.769Z,0.0
2018-07-16T00:06:58.706Z,0.0
2018-07-16T00:07:58.787Z,0.0
2018-07-16T00:08:59.194Z,0.0
2018-07-16T00:09:58.725Z,0.0
2018-07-16T00:10:58.811Z,0.0
2018-07-16T00:18:30.984Z,0.0
2018-07-16T00:18:40.009Z,0.0
2018-07-16T00:19:39.953Z,0.0
2018-07-16T00:20:40.016Z,0.0
2018-07-16T00:21:40.017Z,0.0
2018-07-16T00:22:39.998Z,0.0
2018-07-16T00:23:39.957Z,0.0
2018-07-16T00:24:39.960Z,0.0
2018-07-16T00:25:40.008Z,0.0
2018-07-16T00:26:40.080Z,0.0
2018-07-16T00:27:40.012Z,0.0
2018-07-16T00:28:39.948Z,0.0
2018-07-16T00:29:40.064Z,0.0
2018-07-16T00:30:39.990Z,0.0
2018-07-16T00:31:39.952Z,0.0
2018-07-16T00:32:39.988Z,0.0
2018-07-16T00:33:40.018Z,0.0
2018-07-16T00:34:40.048Z,0.0
2018-07-16T00:35:39.974Z,0.0
2018-07-16T00:36:50.063Z,0.0
2018-07-16T00:37:39.935Z,0.0
2018-07-16T00:38:40.128Z,0.0
2018-07-16T00:39:40.060Z,0.0
2018-07-16T00:40:40.614Z,0.0
2018-07-16T00:41:40.015Z,0.0
2018-07-16T00:42:39.999Z,0.0
2018-07-16T00:43:40.036Z,0.0
2018-07-16T00:44:40.010Z,0.0
2018-07-16T00:45:40.000Z,0.0
2018-07-16T00:46:42.106Z,0.0
2018-07-16T00:47:40.011Z,0.0
2018-07-16T00:48:40.084Z,0.0
2018-07-16T00:49:40.065Z,0.0
2018-07-16T00:50:39.983Z,0.0
2018-07-16T00:51:40.041Z,0.0
2018-07-16T00:52:39.983Z,0.0
2018-07-16T00:53:40.066Z,0.0
2018-07-16T00:54:40.043Z,0.0
2018-07-16T00:55:40.060Z,0.0
2018-07-16T00:57:32.564Z,0.0
2018-07-16T00:57:40.456Z,0.0
2018-07-16T00:58:40.460Z,0.0
2018-07-16T00:59:40.424Z,0.0
2018-07-16T01:00:40.475Z,0.0
2018-07-16T01:01:40.416Z,0.0
2018-07-16T01:02:40.517Z,0.0
2018-07-16T01:03:40.433Z,0.0
2018-07-16T01:04:40.505Z,0.0
2018-07-16T01:05:40.427Z,0.0
2018-07-16T01:06:40.481Z,0.0
2018-07-16T01:08:53.329Z,0.0
2018-07-16T01:09:53.375Z,0.0
2018-07-16T01:10:53.388Z,0.0
2018-07-16T01:11:53.575Z,0.0
2018-07-16T01:12:53.381Z,0.0
2018-07-16T01:13:53.320Z,0.0
2018-07-16T01:14:53.403Z,0.0
2018-07-16T01:15:53.368Z,0.0
2018-07-16T01:16:53.499Z,0.0
2018-07-16T01:17:53.379Z,0.0
2018-07-16T01:19:10.025Z,0.0
2018-07-16T01:19:53.426Z,0.0
2018-07-16T01:20:53.481Z,0.0
2018-07-16T01:21:53.440Z,0.0
2018-07-16T01:22:53.434Z,0.0
2018-07-16T01:23:53.428Z,0.0
2018-07-16T01:24:53.379Z,0.0
2018-07-16T01:25:53.389Z,0.0
2018-07-16T01:26:53.412Z,0.0
2018-07-16T01:27:53.406Z,0.0
2018-07-16T01:28:53.499Z,0.0
2018-07-16T01:29:53.426Z,0.0
2018-07-16T01:30:53.392Z,0.0
2018-07-16T01:31:53.357Z,0.0
2018-07-16T01:32:53.408Z,0.0
2018-07-16T01:33:53.400Z,0.0
2018-07-16T01:34:53.355Z,0.0
2018-07-16T01:35:53.403Z,0.0
2018-07-16T01:36:53.407Z,0.0
2018-07-16T01:37:53.400Z,0.0
2018-07-16T01:38:53.460Z,0.0
2018-07-16T01:39:53.510Z,0.0
2018-07-16T01:40:53.513Z,0.0
2018-07-16T01:41:53.440Z,0.0
2018-07-16T01:42:54.124Z,0.0
2018-07-16T01:43:54.160Z,0.0
2018-07-16T01:44:53.474Z,0.0
2018-07-16T01:45:53.415Z,0.0
2018-07-16T01:46:53.896Z,0.0
2018-07-16T01:47:53.558Z,0.0
2018-07-16T01:50:34.462Z,0.0
2018-07-16T01:50:44.393Z,0.0
2018-07-16T01:51:44.400Z,0.0
2018-07-16T01:52:44.410Z,0.0
2018-07-16T01:53:44.367Z,0.0
2018-07-16T01:54:44.424Z,0.0
2018-07-16T01:55:44.388Z,0.0
2018-07-16T01:56:44.409Z,0.0
2018-07-16T01:57:44.397Z,0.0
2018-07-16T01:58:44.352Z,0.0
2018-07-16T01:59:45.040Z,0.0
2018-07-16T02:00:44.379Z,0.0
2018-07-16T02:01:44.418Z,0.0
2018-07-16T02:02:44.411Z,0.0
2018-07-16T02:03:44.428Z,0.0
2018-07-16T02:04:44.349Z,0.0
2018-07-16T02:05:44.287Z,0.0
2018-07-16T02:06:44.369Z,0.0
2018-07-16T02:07:44.358Z,0.0
2018-07-16T02:08:44.351Z,0.0
2018-07-16T02:09:44.447Z,0.0
2018-07-16T02:10:44.358Z,0.0
2018-07-16T02:11:44.380Z,0.0
2018-07-16T02:13:44.425Z,0.0
2018-07-16T02:14:44.328Z,0.0
2018-07-16T02:15:44.366Z,0.0
2018-07-16T02:16:44.378Z,0.0
2018-07-16T02:17:45.076Z,0.0
2018-07-16T02:18:44.385Z,0.0
2018-07-16T02:19:44.363Z,0.0
2018-07-16T02:20:44.376Z,0.0
2018-07-16T02:21:44.402Z,0.0
2018-07-16T02:22:44.532Z,0.0
2018-07-16T02:23:44.454Z,0.0
2018-07-16T02:24:44.445Z,0.0
2018-07-16T02:25:44.343Z,0.0
2018-07-16T02:26:44.359Z,0.0
2018-07-16T02:27:45.125Z,0.0
2018-07-16T02:28:44.480Z,0.0
2018-07-16T02:29:44.382Z,0.0
2018-07-16T02:30:44.406Z,0.0
2018-07-16T02:31:44.456Z,0.0
2018-07-16T02:32:44.414Z,0.0
2018-07-16T02:33:44.477Z,0.0
2018-07-16T02:34:44.520Z,0.0
2018-07-16T02:35:44.391Z,0.0
2018-07-16T02:36:44.409Z,0.0
2018-07-16T02:37:44.412Z,0.0
2018-07-16T02:38:44.456Z,0.0
2018-07-16T02:39:44.508Z,0.0
2018-07-16T02:40:44.558Z,0.0
2018-07-16T02:41:44.446Z,0.0
2018-07-16T02:42:44.591Z,0.0
2018-07-16T02:43:44.546Z,0.0
2018-07-16T02:44:44.411Z,0.0
2018-07-16T02:45:44.453Z,0.0
2018-07-16T02:47:00.620Z,0.0
2018-07-16T02:47:44.473Z,0.0
2018-07-16T02:48:44.547Z,0.0
2018-07-16T02:49:44.489Z,0.0
2018-07-16T02:50:44.474Z,0.0
2018-07-16T02:51:44.495Z,0.0
2018-07-16T02:52:44.583Z,0.0
2018-07-16T02:53:44.496Z,0.0
2018-07-16T02:54:45.214Z,0.0
2018-07-16T02:55:44.509Z,0.0
2018-07-16T02:58:53.764Z,0.0
2018-07-16T02:59:53.813Z,0.0
2018-07-16T03:00:53.712Z,0.0
2018-07-16T03:01:53.694Z,0.0
2018-07-16T03:02:53.705Z,0.0
2018-07-16T03:03:53.731Z,0.0
2018-07-16T03:04:53.711Z,0.0
2018-07-16T03:05:53.665Z,0.0
2018-07-16T03:06:53.721Z,0.0
2018-07-16T03:07:53.720Z,0.0
2018-07-16T03:10:06.293Z,0.0
2018-07-16T03:11:06.297Z,0.0
2018-07-16T03:12:06.282Z,0.0
2018-07-16T03:13:06.263Z,0.0
2018-07-16T03:14:06.344Z,0.0
2018-07-16T03:15:06.361Z,0.0
2018-07-16T03:16:06.220Z,0.0
2018-07-16T03:17:06.294Z,0.0
2018-07-16T03:18:06.327Z,0.0
2018-07-16T03:19:06.374Z,0.0
2018-07-16T03:20:16.532Z,0.0
2018-07-16T03:21:06.312Z,0.0
2018-07-16T03:22:06.277Z,0.0
2018-07-16T03:23:06.266Z,0.0
2018-07-16T03:24:06.305Z,0.0
2018-07-16T03:25:06.419Z,0.0
2018-07-16T03:26:06.263Z,0.0
2018-07-16T03:27:06.332Z,0.0
2018-07-16T03:28:06.340Z,0.0
2018-07-16T03:29:06.363Z,0.0
2018-07-16T03:31:06.468Z,0.0
2018-07-16T03:32:06.407Z,0.0
2018-07-16T03:33:06.400Z,0.0
2018-07-16T03:34:06.340Z,0.0
2018-07-16T03:35:06.264Z,0.0
2018-07-16T03:36:06.423Z,0.0
2018-07-16T03:37:06.304Z,0.0
2018-07-16T03:38:06.340Z,0.0
2018-07-16T03:39:06.384Z,0.0
2018-07-16T03:40:07.429Z,0.0
2018-07-16T03:42:18.976Z,0.0
2018-07-16T03:43:19.061Z,0.0
2018-07-16T03:44:19.042Z,0.0
2018-07-16T03:45:19.082Z,0.0
2018-07-16T03:46:18.950Z,0.0
2018-07-16T03:47:19.095Z,0.0
2018-07-16T03:48:18.996Z,0.0
2018-07-16T03:49:19.063Z,0.0
2018-07-16T03:50:18.984Z,0.0
2018-07-16T03:51:19.028Z,0.0
2018-07-16T03:58:51.351Z,0.0
2018-07-16T03:58:59.300Z,0.0
2018-07-16T03:59:59.357Z,0.0
2018-07-16T04:00:59.304Z,0.0
2018-07-16T04:01:59.442Z,0.0
2018-07-16T04:02:59.283Z,0.0
2018-07-16T04:03:59.312Z,0.2
2018-07-16T04:04:59.329Z,0.2
2018-07-16T04:05:59.334Z,0.2
2018-07-16T04:06:59.367Z,1.9
2018-07-16T04:07:59.353Z,1.9
2018-07-16T04:08:59.303Z,0.2
2018-07-16T04:09:59.370Z,0.2
2018-07-16T04:10:59.331Z,0.2
2018-07-16T04:11:59.281Z,0.2
2018-07-16T04:12:59.394Z,0.2
2018-07-16T04:13:59.350Z,0.0
2018-07-16T04:14:59.328Z,0.0
2018-07-16T04:15:59.354Z,0.0
2018-07-16T04:16:59.337Z,0.0
2018-07-16T04:17:59.387Z,0.0
2018-07-16T04:18:59.314Z,0.0
2018-07-16T04:19:59.356Z,0.0
2018-07-16T04:20:59.307Z,0.0
2018-07-16T04:21:59.333Z,0.0
2018-07-16T04:22:59.334Z,0.0
2018-07-16T04:23:59.380Z,0.0
2018-07-16T04:24:59.367Z,0.0
2018-07-16T04:25:59.319Z,0.0
2018-07-16T04:26:59.356Z,0.0
2018-07-16T04:27:59.407Z,0.0
2018-07-16T04:28:59.354Z,0.0
2018-07-16T04:29:59.402Z,0.0
2018-07-16T04:30:59.500Z,0.0
2018-07-16T04:31:59.390Z,0.0
2018-07-16T04:32:59.412Z,0.0
2018-07-16T04:33:59.308Z,0.0
2018-07-16T04:34:59.419Z,0.0
2018-07-16T04:35:59.368Z,0.0
2018-07-16T04:36:59.344Z,0.0
2018-07-16T04:37:59.385Z,0.0
2018-07-16T04:38:59.331Z,0.0
2018-07-16T04:39:59.520Z,0.0
2018-07-16T04:40:59.452Z,0.0
2018-07-16T04:42:00.121Z,0.0
2018-07-16T04:54:16.209Z,0.0
2018-07-16T04:55:15.606Z,0.0
2018-07-16T04:56:15.719Z,0.0
2018-07-16T04:57:15.614Z,0.0
2018-07-16T04:58:15.747Z,0.0
2018-07-16T04:59:15.672Z,0.0
2018-07-16T05:00:15.623Z,0.0
2018-07-16T05:01:15.584Z,0.0
2018-07-16T05:02:15.608Z,0.0
2018-07-16T05:03:15.636Z,0.0
2018-07-16T05:04:17.753Z,0.0
2018-07-16T05:05:15.584Z,0.0
2018-07-16T05:06:15.766Z,0.0
2018-07-16T05:07:15.712Z,0.0
2018-07-16T05:08:15.632Z,0.0
2018-07-16T05:09:15.717Z,0.0
2018-07-16T05:10:15.695Z,0.0
2018-07-16T05:11:15.623Z,0.0
2018-07-16T05:12:15.557Z,0.0
2018-07-16T05:13:15.698Z,0.0
2018-07-16T05:24:11.433Z,0.0
2018-07-16T05:25:08.365Z,0.0
2018-07-16T05:26:08.408Z,0.0
2018-07-16T05:27:08.345Z,0.0
2018-07-16T05:28:08.350Z,0.0
2018-07-16T05:29:08.376Z,0.0
2018-07-16T05:30:08.362Z,0.0
2018-07-16T05:31:08.351Z,0.0
2018-07-16T05:32:08.443Z,0.0
2018-07-16T05:33:08.341Z,0.0
2018-07-16T05:34:08.919Z,0.0
2018-07-16T05:35:08.312Z,0.0
2018-07-16T05:36:08.409Z,0.0
2018-07-16T05:37:08.407Z,0.0
2018-07-16T05:38:08.430Z,0.0
2018-07-16T05:39:08.361Z,0.0
2018-07-16T05:40:08.336Z,0.0
2018-07-16T05:41:08.355Z,0.0
2018-07-16T05:42:08.392Z,0.0
2018-07-16T05:43:08.336Z,0.0
2018-07-16T05:44:08.426Z,0.0
2018-07-16T05:45:08.380Z,0.0
2018-07-16T05:46:08.410Z,0.0
2018-07-16T05:47:08.432Z,0.0
2018-07-16T05:48:08.359Z,0.0
2018-07-16T05:49:08.433Z,0.0
2018-07-16T05:50:08.417Z,0.0
2018-07-16T05:51:08.355Z,0.0
2018-07-16T05:52:24.456Z,0.0
2018-07-16T05:53:08.363Z,0.0
2018-07-16T05:54:08.345Z,0.0
2018-07-16T05:55:08.333Z,0.0
2018-07-16T05:56:08.326Z,0.0
2018-07-16T05:57:08.349Z,0.0
2018-07-16T05:58:08.487Z,0.0
2018-07-16T05:59:08.343Z,0.0
2018-07-16T06:00:08.357Z,0.0
2018-07-16T06:01:08.434Z,0.0
2018-07-16T06:02:08.366Z,0.0
2018-07-16T06:03:08.362Z,0.0
2018-07-16T06:04:08.347Z,0.0
2018-07-16T06:05:08.422Z,0.0
2018-07-16T06:06:08.371Z,0.0
2018-07-16T06:07:08.392Z,0.0
2018-07-16T06:08:09.011Z,0.0
2018-07-16T06:09:08.344Z,0.0
2018-07-16T06:10:08.339Z,0.0
2018-07-16T06:11:08.352Z,0.0
2018-07-16T06:12:08.862Z,0.0
2018-07-16T06:13:08.390Z,0.0
2018-07-16T06:14:08.441Z,0.0
2018-07-16T06:15:08.364Z,0.0
2018-07-16T06:16:08.472Z,0.0
2018-07-16T06:17:08.348Z,0.0
2018-07-16T06:18:08.460Z,0.0
2018-07-16T06:19:08.361Z,0.0
2018-07-16T06:20:08.378Z,0.0
2018-07-16T06:21:08.489Z,0.0
2018-07-16T06:22:08.440Z,0.0
2018-07-16T06:23:08.357Z,0.0
2018-07-16T06:24:08.538Z,0.0
2018-07-16T06:25:08.376Z,0.0
2018-07-16T06:26:08.399Z,0.2
2018-07-16T06:27:08.442Z,0.2
2018-07-16T06:28:08.465Z,0.2
2018-07-16T06:29:08.407Z,0.0
2018-07-16T06:30:08.556Z,0.0
2018-07-16T06:31:09.056Z,0.0
2018-07-16T06:32:08.372Z,0.0
2018-07-16T06:33:08.377Z,0.0
2018-07-16T06:34:08.377Z,0.0
2018-07-16T06:35:08.402Z,0.0
2018-07-16T06:36:08.436Z,0.0
2018-07-16T06:37:08.434Z,0.0
2018-07-16T06:38:08.393Z,0.0
2018-07-16T06:39:08.432Z,0.0
2018-07-16T06:40:08.531Z,0.0
2018-07-16T06:41:08.744Z,0.0
2018-07-16T06:42:08.403Z,0.0
2018-07-16T06:43:08.438Z,0.0
2018-07-16T06:44:08.413Z,0.0
2018-07-16T06:45:09.121Z,0.0
2018-07-16T06:46:08.468Z,0.0
2018-07-16T06:47:08.428Z,0.0
2018-07-16T06:48:08.425Z,0.0
2018-07-16T06:49:10.524Z,0.0
2018-07-16T06:50:08.388Z,0.0
2018-07-16T06:51:08.438Z,0.0
2018-07-16T06:52:08.445Z,0.0
2018-07-16T06:53:08.453Z,0.0
2018-07-16T06:54:08.463Z,0.0
2018-07-16T06:55:08.542Z,0.0
2018-07-16T06:56:08.413Z,0.0
2018-07-16T06:57:08.482Z,0.0
2018-07-16T06:58:08.533Z,0.0
2018-07-16T06:59:08.484Z,0.0
2018-07-16T07:00:08.481Z,0.0
2018-07-16T07:01:08.552Z,0.0
2018-07-16T07:02:08.560Z,0.0
2018-07-16T07:03:08.529Z,0.0
2018-07-16T07:04:08.582Z,0.0
2018-07-16T07:05:08.487Z,0.0
2018-07-16T07:06:08.438Z,0.0
2018-07-16T07:07:08.587Z,0.0
2018-07-16T07:08:09.138Z,0.0
2018-07-16T07:09:08.502Z,0.0
2018-07-16T07:10:08.645Z,0.0
2018-07-16T07:11:08.565Z,0.0
2018-07-16T07:12:08.530Z,0.0
2018-07-16T07:13:08.466Z,0.0
2018-07-16T07:14:08.475Z,0.0
2018-07-16T07:15:08.453Z,0.0
2018-07-16T07:16:08.465Z,0.0
2018-07-16T07:17:08.518Z,0.0
2018-07-16T07:18:08.531Z,0.0
2018-07-16T07:19:08.461Z,0.0
2018-07-16T07:20:08.504Z,0.0
2018-07-16T07:21:08.580Z,0.0
2018-07-16T07:22:08.503Z,0.0
2018-07-16T07:23:08.465Z,0.0
2018-07-16T07:24:08.530Z,0.0
2018-07-16T07:25:08.495Z,0.0
2018-07-16T07:26:11.597Z,0.0
2018-07-16T07:27:08.511Z,0.0
2018-07-16T07:28:08.461Z,0.0
2018-07-16T07:29:08.436Z,0.0
2018-07-16T07:30:08.568Z,0.0
2018-07-16T07:31:08.505Z,0.0
2018-07-16T07:32:08.512Z,0.2
2018-07-16T07:33:08.518Z,0.2
2018-07-16T07:34:08.546Z,0.2
2018-07-16T07:35:08.690Z,0.0
2018-07-16T07:36:08.598Z,0.0
2018-07-16T07:37:08.594Z,0.0
2018-07-16T07:38:08.495Z,0.0
2018-07-16T07:39:08.513Z,0.0
2018-07-16T07:40:08.550Z,0.0
2018-07-16T07:41:08.515Z,0.0
2018-07-16T07:42:08.551Z,0.0
2018-07-16T07:43:08.548Z,0.0
2018-07-16T07:44:08.656Z,0.0
2018-07-16T07:45:08.547Z,0.0
2018-07-16T07:46:24.786Z,0.0
2018-07-16T07:47:08.598Z,0.0
2018-07-16T07:48:08.581Z,0.0
2018-07-16T07:49:08.612Z,0.0
2018-07-16T07:50:08.544Z,0.0
2018-07-16T07:51:08.572Z,0.0
2018-07-16T07:52:08.588Z,0.0
2018-07-16T07:53:08.585Z,0.0
2018-07-16T07:54:08.741Z,0.0
2018-07-16T07:55:08.900Z,0.0
2018-07-16T07:56:08.617Z,0.0
2018-07-16T07:57:08.542Z,0.0
2018-07-16T07:58:08.648Z,0.0
2018-07-16T07:59:08.533Z,0.0
2018-07-16T08:00:08.682Z,0.0
2018-07-16T08:01:08.658Z,0.0
2018-07-16T08:02:08.607Z,0.0
2018-07-16T08:03:08.649Z,0.0
2018-07-16T08:05:08.609Z,0.0
2018-07-16T08:06:08.604Z,0.0
2018-07-16T08:07:08.582Z,0.0
2018-07-16T08:08:08.710Z,0.0
2018-07-16T08:09:08.661Z,0.0
2018-07-16T08:10:08.580Z,0.0
2018-07-16T08:11:08.609Z,0.0
2018-07-16T08:12:08.635Z,0.0
2018-07-16T08:13:08.606Z,0.0
2018-07-16T08:14:08.618Z,0.0
2018-07-16T08:15:09.846Z,0.0
2018-07-16T08:16:08.644Z,0.0
2018-07-16T08:17:08.608Z,0.0
2018-07-16T08:18:08.740Z,0.0
2018-07-16T08:19:08.588Z,0.0
2018-07-16T08:20:08.675Z,0.0
2018-07-16T08:21:08.857Z,0.0
2018-07-16T08:22:08.700Z,0.0
2018-07-16T08:23:08.671Z,0.0
2018-07-16T08:24:09.269Z,0.0
2018-07-16T08:25:09.204Z,0.0
2018-07-16T08:26:08.746Z,0.0
2018-07-16T08:27:08.660Z,0.0
2018-07-16T08:28:08.898Z,0.0
2018-07-16T08:29:08.602Z,0.0
2018-07-16T08:30:08.636Z,0.0
2018-07-16T08:31:08.620Z,0.0
2018-07-16T08:32:08.668Z,0.0
2018-07-16T08:33:08.685Z,0.0
2018-07-16T08:34:08.626Z,0.0
2018-07-16T08:35:08.652Z,0.0
2018-07-16T08:36:08.677Z,0.0
2018-07-16T08:37:08.621Z,0.0
2018-07-16T08:38:08.728Z,0.0
2018-07-16T08:39:08.718Z,0.0
2018-07-16T08:40:08.735Z,0.0
2018-07-16T08:41:08.703Z,0.0
2018-07-16T08:42:08.709Z,0.0
2018-07-16T08:43:18.860Z,0.0
2018-07-16T08:44:08.725Z,0.0
2018-07-16T08:45:08.732Z,0.0
2018-07-16T08:46:08.830Z,0.0
2018-07-16T08:47:08.616Z,0.0
2018-07-16T08:48:08.749Z,0.0
2018-07-16T08:49:08.736Z,0.0
2018-07-16T08:50:08.704Z,0.0
2018-07-16T08:51:08.728Z,0.0
2018-07-16T08:52:08.677Z,0.0
2018-07-16T08:53:09.407Z,0.0
2018-07-16T08:54:08.749Z,0.0
2018-07-16T08:55:08.703Z,0.0
2018-07-16T08:56:08.709Z,0.0
2018-07-16T08:57:08.677Z,0.0
2018-07-16T08:58:08.794Z,0.0
2018-07-16T08:59:08.786Z,0.0
2018-07-16T09:00:08.696Z,0.0
2018-07-16T09:01:08.800Z,0.0
2018-07-16T09:02:08.729Z,0.0
2018-07-16T09:03:08.719Z,0.0
2018-07-16T09:04:08.840Z,0.0
2018-07-16T09:05:08.815Z,0.0
2018-07-16T09:06:08.807Z,0.0
2018-07-16T09:07:08.773Z,0.0
2018-07-16T09:08:09.308Z,0.0
2018-07-16T09:09:08.747Z,0.0
2018-07-16T09:10:08.929Z,0.0
2018-07-16T09:11:08.877Z,0.0
2018-07-16T09:12:08.757Z,0.0
2018-07-16T09:13:08.905Z,0.0
2018-07-16T09:14:08.854Z,0.0
2018-07-16T09:15:08.682Z,0.0
2018-07-16T09:16:08.804Z,0.0
2018-07-16T09:17:08.758Z,0.0
2018-07-16T09:18:08.753Z,0.0
2018-07-16T09:19:08.752Z,0.0
2018-07-16T09:20:08.734Z,0.0
2018-07-16T09:21:08.693Z,0.0
2018-07-16T09:22:18.825Z,0.0
2018-07-16T09:23:08.761Z,0.0
2018-07-16T09:24:08.753Z,0.0
2018-07-16T09:25:08.732Z,0.0
2018-07-16T09:26:08.784Z,0.0
2018-07-16T09:27:08.720Z,0.0
2018-07-16T09:28:08.709Z,0.0
2018-07-16T09:29:08.777Z,0.0
2018-07-16T09:30:08.751Z,0.0
2018-07-16T09:31:08.761Z,0.0
2018-07-16T09:32:08.799Z,0.0
2018-07-16T09:33:08.776Z,0.0
2018-07-16T09:34:08.823Z,0.0
2018-07-16T09:35:08.828Z,0.0
2018-07-16T09:36:08.775Z,0.0
2018-07-16T09:37:08.756Z,0.0
2018-07-16T09:38:08.750Z,0.0
2018-07-16T09:39:08.851Z,0.0
2018-07-16T09:41:08.742Z,0.0
2018-07-16T09:42:08.797Z,0.0
2018-07-16T09:43:08.705Z,0.0
2018-07-16T09:44:08.839Z,0.0
2018-07-16T09:45:08.713Z,0.0
2018-07-16T09:46:08.766Z,0.0
2018-07-16T09:47:08.745Z,0.0
2018-07-16T09:48:08.765Z,0.0
2018-07-16T09:49:08.729Z,0.0
2018-07-16T09:52:14.994Z,0.0
2018-07-16T09:53:14.989Z,0.0
2018-07-16T09:54:15.040Z,0.0
2018-07-16T09:55:14.982Z,0.0
2018-07-16T09:56:15.107Z,0.0
2018-07-16T09:57:15.166Z,0.0
2018-07-16T09:58:15.047Z,0.0
2018-07-16T09:59:14.951Z,0.0
2018-07-16T10:00:15.024Z,0.0
2018-07-16T10:01:14.944Z,0.0
2018-07-16T10:03:27.925Z,0.0
2018-07-16T10:04:27.942Z,0.0
2018-07-16T10:05:27.929Z,0.0
2018-07-16T10:06:27.942Z,0.0
2018-07-16T10:07:27.902Z,0.0
2018-07-16T10:08:28.067Z,0.0
2018-07-16T10:09:27.962Z,0.0
2018-07-16T10:10:27.990Z,0.0
2018-07-16T10:11:27.932Z,0.0
2018-07-16T10:12:27.871Z,0.0
2018-07-16T10:18:23.639Z,0.0
2018-07-16T10:18:32.546Z,0.0
2018-07-16T10:19:32.672Z,0.0
2018-07-16T10:20:33.254Z,0.0
2018-07-16T10:21:32.576Z,0.0
2018-07-16T10:22:32.755Z,0.0
2018-07-16T10:23:32.568Z,0.0
2018-07-16T10:24:32.689Z,0.0
2018-07-16T10:25:32.599Z,1.6
2018-07-16T10:26:32.597Z,1.6
2018-07-16T10:28:45.536Z,1.6
2018-07-16T10:29:45.594Z,1.6
2018-07-16T10:30:45.562Z,0.8
2018-07-16T10:31:45.588Z,0.8
2018-07-16T10:32:45.561Z,0.8
2018-07-16T10:33:45.714Z,0.8
2018-07-16T10:34:45.580Z,0.8
2018-07-16T10:35:45.587Z,1.1
2018-07-16T10:36:45.591Z,1.1
2018-07-16T10:37:45.578Z,1.1
2018-07-16T10:38:46.596Z,1.1
2018-07-16T10:39:45.555Z,1.1
2018-07-16T10:40:46.168Z,1.3
2018-07-16T10:41:45.716Z,1.3
2018-07-16T10:42:45.618Z,0.0
2018-07-16T10:43:45.624Z,0.0
2018-07-16T10:44:45.643Z,0.0
2018-07-16T10:45:45.716Z,0.0
2018-07-16T10:46:45.674Z,0.0
2018-07-16T10:47:45.658Z,0.0
2018-07-16T10:48:46.282Z,0.0
2018-07-16T10:49:45.780Z,0.0
2018-07-16T10:50:45.778Z,0.0
2018-07-16T10:51:45.551Z,0.0
2018-07-16T10:52:45.594Z,0.0
2018-07-16T10:53:45.580Z,0.0
2018-07-16T10:54:45.637Z,0.0
2018-07-16T10:55:45.596Z,1.1
2018-07-16T10:56:45.587Z,1.1
2018-07-16T10:57:45.611Z,1.1
2018-07-16T10:58:45.646Z,0.2
2018-07-16T10:59:45.626Z,0.2
2018-07-16T11:00:45.690Z,0.5
2018-07-16T11:01:45.581Z,0.5
2018-07-16T11:02:45.604Z,0.5
2018-07-16T11:03:45.629Z,0.5
2018-07-16T11:04:45.690Z,0.5
2018-07-16T11:05:45.647Z,0.0
2018-07-16T11:06:45.683Z,0.0
2018-07-16T11:07:45.676Z,0.0
2018-07-16T11:08:46.585Z,0.0
2018-07-16T11:09:45.650Z,0.0
2018-07-16T11:10:45.624Z,3.8
2018-07-16T11:11:45.608Z,3.8
2018-07-16T11:12:45.629Z,3.8
2018-07-16T11:13:45.618Z,2.5
2018-07-16T11:14:45.616Z,2.5
2018-07-16T11:15:45.682Z,2.5
2018-07-16T11:16:45.624Z,1.3
2018-07-16T11:17:45.661Z,1.3
2018-07-16T11:18:45.716Z,1.1
2018-07-16T11:19:45.613Z,1.1
2018-07-16T11:20:45.705Z,1.1
2018-07-16T11:21:45.782Z,0.0
2018-07-16T11:22:45.680Z,0.0
2018-07-16T11:23:45.669Z,1.9
2018-07-16T11:24:45.723Z,1.9
2018-07-16T11:35:40.303Z,1.9
2018-07-16T11:36:38.074Z,0.0
2018-07-16T11:37:38.117Z,0.0
2018-07-16T11:38:38.104Z,0.0
2018-07-16T11:39:38.108Z,0.0
2018-07-16T11:40:38.096Z,0.0
2018-07-16T11:41:38.224Z,0.2
2018-07-16T11:42:38.082Z,0.2
2018-07-16T11:43:38.185Z,0.2
2018-07-16T11:44:38.108Z,0.0
2018-07-16T11:45:38.844Z,0.0
2018-07-16T11:46:38.108Z,0.0
2018-07-16T11:47:38.153Z,0.0
2018-07-16T11:48:38.152Z,0.0
2018-07-16T11:49:38.126Z,0.0
2018-07-16T11:50:38.156Z,0.0
2018-07-16T11:51:38.157Z,0.2
2018-07-16T11:52:38.122Z,0.2
2018-07-16T11:53:38.118Z,0.2
2018-07-16T11:54:38.143Z,0.0
2018-07-16T11:56:06.402Z,0.0
2018-07-16T11:56:38.292Z,0.0
2018-07-16T11:57:38.163Z,0.0
2018-07-16T11:58:38.200Z,0.0
2018-07-16T11:59:38.135Z,0.2
2018-07-16T12:00:38.225Z,0.2
2018-07-16T12:01:38.152Z,0.0
2018-07-16T12:02:38.209Z,0.0
2018-07-16T12:03:38.253Z,0.0
2018-07-16T12:04:38.228Z,0.0
2018-07-16T12:05:38.178Z,0.0
2018-07-16T12:06:41.597Z,0.0
2018-07-16T12:07:38.177Z,0.0
2018-07-16T12:08:38.180Z,0.0
2018-07-16T12:09:38.180Z,0.0
2018-07-16T12:10:38.182Z,0.0
2018-07-16T12:11:38.341Z,0.0
2018-07-16T12:12:38.260Z,0.8
2018-07-16T12:13:38.226Z,0.8
2018-07-16T12:14:38.268Z,0.8
2018-07-16T12:15:38.193Z,0.8
2018-07-16T12:16:38.218Z,0.8
2018-07-16T12:17:38.162Z,0.0
2018-07-16T12:18:38.179Z,0.0
2018-07-16T12:19:38.165Z,0.0
2018-07-16T12:20:38.286Z,0.0
2018-07-16T12:21:38.190Z,0.0
2018-07-16T12:22:38.220Z,0.0
2018-07-16T12:23:38.192Z,0.0
2018-07-16T12:24:38.239Z,0.0
2018-07-16T12:25:38.248Z,0.0
2018-07-16T12:26:39.436Z,0.0
2018-07-16T12:27:38.233Z,0.0
2018-07-16T12:28:38.223Z,0.0
2018-07-16T12:29:38.191Z,0.0
2018-07-16T12:30:38.224Z,0.0
2018-07-16T12:31:38.177Z,0.0
2018-07-16T12:32:38.236Z,0.5
2018-07-16T12:33:38.226Z,0.5
2018-07-16T12:34:38.132Z,0.2
2018-07-16T12:35:38.265Z,0.2
2018-07-16T12:36:38.199Z,0.2
2018-07-16T12:37:38.198Z,0.0
2018-07-16T12:38:38.226Z,0.0
2018-07-16T12:39:38.270Z,0.0
2018-07-16T12:40:38.211Z,0.0
2018-07-16T12:41:38.519Z,0.0
2018-07-16T12:42:38.234Z,1.3
2018-07-16T12:43:38.210Z,1.3
2018-07-16T12:44:38.193Z,1.3
2018-07-16T12:45:38.181Z,0.0
2018-07-16T12:46:38.228Z,0.0
2018-07-16T12:47:38.200Z,0.8
2018-07-16T12:48:38.268Z,0.8
2018-07-16T12:49:38.197Z,0.8
2018-07-16T12:50:38.301Z,1.9
2018-07-16T12:51:38.351Z,1.9
2018-07-16T12:52:38.261Z,0.5
2018-07-16T12:53:38.331Z,0.5
2018-07-16T12:54:38.253Z,0.5
2018-07-16T12:55:38.462Z,0.2
2018-07-16T12:56:39.044Z,0.2
2018-07-16T12:57:38.237Z,0.2
2018-07-16T12:58:38.249Z,0.2
2018-07-16T12:59:38.293Z,0.2
2018-07-16T13:00:38.250Z,0.5
2018-07-16T13:02:06.714Z,0.5
2018-07-16T13:02:38.238Z,1.1
2018-07-16T13:03:38.312Z,1.1
2018-07-16T13:04:38.276Z,1.1
2018-07-16T13:05:38.251Z,1.3
2018-07-16T13:06:38.283Z,1.3
2018-07-16T13:07:38.239Z,1.1
2018-07-16T13:08:38.272Z,1.1
2018-07-16T13:09:38.341Z,1.1
2018-07-16T13:10:38.279Z,1.1
2018-07-16T13:11:38.453Z,1.1
2018-07-16T13:13:50.641Z,1.6
2018-07-16T13:14:50.668Z,1.6
2018-07-16T13:15:50.786Z,0.5
2018-07-16T13:16:50.744Z,0.5
2018-07-16T13:17:50.688Z,0.0
2018-07-16T13:18:50.720Z,0.0
2018-07-16T13:19:50.770Z,0.0
2018-07-16T13:20:50.726Z,0.2
2018-07-16T13:21:50.818Z,0.2
2018-07-16T13:22:50.699Z,0.2
2018-07-16T13:33:37.741Z,0.0
2018-07-16T13:33:46.625Z,0.0
2018-07-16T13:34:46.626Z,0.0
2018-07-16T13:35:46.744Z,0.0
2018-07-16T13:36:46.683Z,0.0
2018-07-16T13:37:46.686Z,0.0
2018-07-16T13:38:46.752Z,0.2
2018-07-16T13:39:46.664Z,0.2
2018-07-16T13:40:46.639Z,0.0
2018-07-16T13:41:46.664Z,0.0
2018-07-16T13:42:50.303Z,0.0
2018-07-16T13:43:46.599Z,0.0
2018-07-16T13:44:46.625Z,0.0
2018-07-16T13:45:46.681Z,0.0
2018-07-16T13:46:46.891Z,0.0
2018-07-16T13:47:46.714Z,0.0
2018-07-16T13:48:46.701Z,0.0
2018-07-16T13:49:46.698Z,0.0
2018-07-16T13:50:46.602Z,0.0
2018-07-16T13:51:46.776Z,0.0
2018-07-16T14:03:38.437Z,0.0
2018-07-16T14:03:52.377Z,0.0
2018-07-16T14:04:52.361Z,0.0
2018-07-16T14:05:52.347Z,0.0
2018-07-16T14:06:52.524Z,0.0
2018-07-16T14:07:52.368Z,0.0
2018-07-16T14:08:52.373Z,0.0
2018-07-16T14:09:52.338Z,0.0
2018-07-16T14:10:52.344Z,0.0
2018-07-16T14:13:04.878Z,0.0
2018-07-16T14:14:04.829Z,0.0
2018-07-16T14:15:04.840Z,0.0
2018-07-16T14:16:04.857Z,0.0
2018-07-16T14:17:04.830Z,0.0
2018-07-16T14:18:04.820Z,0.0
2018-07-16T14:19:04.823Z,0.0
2018-07-16T14:20:04.924Z,0.0
2018-07-16T14:21:04.851Z,0.0
2018-07-16T14:22:04.826Z,0.0
2018-07-16T14:23:04.844Z,0.0
2018-07-16T14:24:04.987Z,0.0
2018-07-16T14:25:04.831Z,0.0
2018-07-16T14:26:04.820Z,0.0
2018-07-16T14:27:04.970Z,0.0
2018-07-16T14:28:04.988Z,0.0
2018-07-16T14:29:04.885Z,0.0
2018-07-16T14:30:04.832Z,0.0
2018-07-16T14:31:04.901Z,0.0
2018-07-16T14:35:23.449Z,0.0
2018-07-16T14:35:32.401Z,0.0
2018-07-16T14:36:32.417Z,0.0
2018-07-16T14:37:32.394Z,0.0
2018-07-16T14:38:32.524Z,0.0
2018-07-16T14:39:32.640Z,0.0
2018-07-16T14:40:32.444Z,0.0
2018-07-16T14:41:32.483Z,0.0
2018-07-16T14:42:32.436Z,0.0
2018-07-16T14:43:32.495Z,0.0
2018-07-16T14:45:45.628Z,0.0
2018-07-16T14:46:45.647Z,0.0
2018-07-16T14:47:45.828Z,0.0
2018-07-16T14:48:45.613Z,0.0
2018-07-16T14:49:45.693Z,0.0
2018-07-16T14:50:45.706Z,0.0
2018-07-16T14:51:45.684Z,0.0
2018-07-16T14:52:45.653Z,0.0
2018-07-16T14:53:45.694Z,0.0
2018-07-16T14:54:45.692Z,0.0
2018-07-16T15:05:38.254Z,0.0
2018-07-16T15:06:37.933Z,0.0
2018-07-16T15:07:37.899Z,0.0
2018-07-16T15:08:38.164Z,0.0
2018-07-16T15:09:38.072Z,0.2
2018-07-16T15:10:38.585Z,0.2
2018-07-16T15:11:38.097Z,0.2
2018-07-16T15:12:38.008Z,0.2
2018-07-16T15:13:37.945Z,0.2
2018-07-16T15:14:37.958Z,0.2
2018-07-16T15:15:41.308Z,1.3
2018-07-16T15:16:38.021Z,1.3
2018-07-16T15:17:37.974Z,1.3
2018-07-16T15:18:38.027Z,1.3
2018-07-16T15:19:37.959Z,1.3
2018-07-16T15:20:38.063Z,0.8
2018-07-16T15:21:37.988Z,0.8
2018-07-16T15:22:37.971Z,0.5
2018-07-16T15:23:38.006Z,0.5